• Join FlightAware (Why Join?)
  • Login
  • US Flag 
08:11PM EDT


 

Airport Tracker/Info


-or-


 

Live Flight TrackerFlight Track Log ✈ N10933 ✈ 14-Jul-2013 ✈ KEPM - KPTD

Flight Track Log - Related Links

Times and Time Zones

All times are in EDT time to prevent confusion due to time zone crossing. See the N10933 flight status page for this flight to view local times or setup timezone preferences in your user account.

Time Position Orientation Groundspeed Altitude Reporting Facility
EDT Latitude Longitude Course Direction KTS MPH feet Rate Location/Type
02:17PM 44.8939 -67.1819 270° West 167 192 5,500  Level Boston Center
02:18PM 44.8942 -67.2347 270° West 150 173 6,200 720 Climbing Boston Center
02:19PM 44.8922 -67.2878 267° West 140 161 7,000 840 Climbing Boston Center
02:20PM 44.8928 -67.3433 271° West 140 161 7,900 840 Climbing Boston Center
02:21PM 44.8931 -67.3961 270° West 140 161 8,700 600 Climbing Boston Center
02:22PM 44.8956 -67.4547 273° West 140 161 9,200 540 Climbing Boston Center
02:23PM 44.9000 -67.3852 270° West  Level FlightAware Approximate
02:23PM 44.8961 -67.5161 271° West 151 174 9,800  Level Boston Center
02:24PM 44.8986 -67.5775 273° West 158 182 10,300 540 Climbing Boston Center
02:25PM 44.9014 -67.6419 274° West 158 182 10,900 600 Climbing Boston Center
02:26PM 44.8981 -67.7125 266° West 158 182 11,500 600 Climbing Boston Center
02:27PM 44.9006 -67.7739 273° West 158 182 12,100 300 Climbing Boston Center
02:28PM 44.8992 -67.8414 268° West 158 182 12,100  Level Boston Center
02:29PM 44.8975 -67.9089 268° West 163 188 12,100  Level Boston Center
02:30PM 44.8961 -67.9767 268° West 168 193 12,100  Level Boston Center
02:31PM 44.8944 -68.0469 268° West 173 199 12,100  Level Boston Center
02:32PM 44.8950 -68.1144 271° West 179 206 12,100  Level Boston Center
02:33PM 44.8953 -68.1789 270° West 179 206 12,100  Level Boston Center
02:34PM 44.8978 -68.2492 273° West 179 206 12,100  Level Boston Center
02:35PM 44.8983 -68.3164 271° West 179 206 12,100  Level Boston Center
02:36PM 44.8967 -68.3869 268° West 179 206 12,100  Level Boston Center
02:37PM 44.8947 -68.4575 268° West 179 206 12,100  Level Boston Center
02:38PM 44.8931 -68.5281 268° West 179 206 12,100  Level Boston Center
02:39PM 44.8933 -68.5953 270° West 179 206 12,100  Level Boston Center
02:40PM 44.8933 -68.6658 270° West 179 206 12,100  Level Boston Center
02:41PM 44.8914 -68.7333 268° West 179 206 12,100  Level Boston Center
02:42PM 44.8917 -68.8036 270° West 179 206 12,100  Level Boston Center
02:43PM 44.8897 -68.8742 268° West 179 206 12,100  Level Boston Center
02:44PM 44.8878 -68.9475 268° West 179 206 12,100  Level Boston Center
02:45PM 44.8878 -69.0178 270° West 179 206 12,100  Level Boston Center
02:46PM 44.8878 -69.0881 270° West 179 206 12,100  Level Boston Center
02:47PM 44.8878 -69.1583 270° West 179 206 12,100  Level Boston Center
02:48PM 44.8856 -69.2289 267° West 179 206 12,100  Level Boston Center
02:49PM 44.8853 -69.2992 270° West 179 206 12,100 -60 Level Boston Center
02:50PM 44.8853 -69.3725 270° West 179 206 12,000 -60 Descending Boston Center
02:51PM 44.8850 -69.4428 270° West 179 206 12,000  Level Boston Center
02:52PM 44.8828 -69.5161 268° West 179 206 12,000  Level Boston Center
02:53PM 44.8822 -69.5808 269° West 179 206 12,100  Climbing Boston Center
02:54PM 44.8817 -69.6422 269° West 179 206 12,100 -60 Level Boston Center
02:55PM 44.8811 -69.7039 269° West 167 192 12,000 -60 Descending Boston Center
02:56PM 44.8783 -69.7656 266° West 162 186 12,000  Level Boston Center
02:57PM 44.8778 -69.8300 269° West 157 181 12,100  Climbing Boston Center
02:58PM 44.8747 -69.8800 265° West 162 186 12,100 -60 Level Boston Center
02:59PM 44.8742 -69.9561 269° West 162 186 12,000  Descending Boston Center
03:00PM 44.8736 -70.0206 269° West 162 186 12,100  Climbing Boston Center
03:01PM 44.8728 -70.0908 269° West 167 192 12,100 -60 Level Boston Center
03:02PM 44.8722 -70.1614 269° West 178 205 12,000  Descending Boston Center
03:03PM 44.8714 -70.2317 269° West 183 211 12,100  Climbing Boston Center
03:04PM 44.8706 -70.2872 269° West 183 211 12,000  Descending Boston Center
03:05PM 44.8678 -70.3694 267° West 183 211 12,100  Climbing Boston Center
03:06PM 44.8692 -70.4425 272° West 178 205 12,100  Level Boston Center
03:07PM 44.8681 -70.5128 269° West 178 205 12,100  Level Boston Center
03:08PM 44.8672 -70.5833 269° West 178 205 12,100 -60 Level Boston Center
03:09PM 44.8664 -70.6536 269° West 178 205 12,000 -60 Descending Boston Center
03:10PM 44.8653 -70.7239 269° West 178 205 12,000 60 Level Boston Center
03:11PM 44.8642 -70.7942 269° West 183 211 12,200 60 Climbing Boston Center
03:12PM 44.8631 -70.8675 269° West 183 211 12,200 -60 Level Boston Center
03:13PM 44.8642 -70.9378 271° West 178 205 12,100  Descending Boston Center
03:14PM 44.8628 -71.0108 268° West 178 205 12,200  Climbing Boston Center
03:15PM 44.8617 -71.0814 269° West 178 205 12,200  Level Boston Center
03:16PM 44.8625 -71.1517 271° West 178 205 12,200 -60 Level Boston Center
03:17PM 44.8611 -71.2278 269° West 178 205 12,100 -60 Descending Boston Center
03:19PM 44.8600 -71.3008 269° West 178 205 12,100  Level Boston Center
03:20PM 44.8586 -71.3947 269° West 178 205 12,100  Level Boston Center
03:21PM 44.8550 -71.4650 266° West 178 205 12,200  Climbing Boston Center
03:22PM 44.8517 -71.5383 266° West 183 211 12,100 -60 Descending Boston Center
03:23PM 44.8500 -71.5969 268° West 183 211 12,100  Level Boston Center
03:24PM 44.8442 -71.6819 265° West 183 211 12,100  Level Boston Center
03:25PM 44.8406 -71.7522 266° West 183 211 12,200  Climbing Boston Center
03:26PM 44.8367 -71.8225 266° West 178 205 12,100  Descending Boston Center
03:27PM 44.8331 -71.8928 266° West 178 205 12,200  Climbing Boston Center
03:28PM 44.8292 -71.9631 266° West 178 205 12,200  Level Boston Center
03:29PM 44.8253 -72.0303 265° West 178 205 12,200 -60 Level Boston Center
03:30PM 44.8211 -72.1006 265° West 178 205 12,100  Descending Boston Center
03:31PM 44.8172 -72.1708 266° West 178 205 12,200  Climbing Boston Center
03:32PM 44.8111 -72.2411 263° West 178 205 12,200 -60 Level Boston Center
03:33PM 44.8072 -72.3114 266° West 178 205 12,100 -120 Descending Boston Center
03:34PM 44.8031 -72.3844 265° West 178 205 12,000 -60 Descending Boston Center
03:35PM 44.7967 -72.4547 263° West 178 205 12,000  Level Boston Center
03:36PM 44.7947 -72.5250 268° West 178 205 12,100  Climbing Boston Center
03:37PM 44.7903 -72.5950 265° West 178 205 12,000 -60 Descending Boston Center
03:38PM 44.7881 -72.6653 267° West 178 205 12,000  Level Boston Center
03:39PM 44.7839 -72.7356 265° West 178 205 12,100  Climbing Boston Center
03:40PM 44.7817 -72.8056 267° West 178 205 12,100  Level Boston Center
03:41PM 44.7772 -72.8903 266° West 178 205 12,100  Level Boston Center
03:42PM 44.7747 -72.9606 267° West 178 205 12,100 -60 Level Boston Center
03:43PM 44.7703 -73.0131 263° West 178 205 12,000  Descending Boston Center
03:44PM 44.7678 -73.1039 268° West 191 220 12,100  Climbing Boston Center
03:45PM 44.7653 -73.1681 267° West 191 220 12,000 -60 Descending Boston Center
03:46PM 44.7628 -73.2325 267° West 185 213 12,000  Level Boston Center
03:47PM 44.7603 -73.3025 267° West 180 207 12,100  Climbing Boston Center
03:48PM 44.7533 -73.3842 263° West 180 207 12,100  Level Boston Center
03:49PM 44.7486 -73.4542 265° West 180 207 12,100 -60 Level Boston Center
03:50PM 44.7436 -73.5244 264° West 180 207 12,000 -60 Descending Boston Center
03:51PM 44.7389 -73.5972 265° West 180 207 12,000  Level Boston Center
03:52PM 44.7361 -73.6675 267° West 180 207 12,000 -300 Level Boston Center
03:53PM 44.7311 -73.7403 265° West 185 213 11,500 -600 Descending Boston Center
03:54PM 44.7281 -73.8222 267° West 191 220 10,900 -300 Descending Boston Center
03:55PM 44.7231 -73.8892 264° West 191 220 11,000  Climbing Boston Center
03:56PM 44.7203 -73.9533 267° West 178 205 11,000 -300 Level Boston Center
03:57PM 44.7194 -74.0175 269° West 173 199 10,500 -780 Descending Boston Center
03:58PM 44.7142 -74.0906 264° West 181 208 9,500 -960 Descending Boston Center
03:59PM 44.7131 -74.1578 269° West 186 214 8,600 -960 Descending Boston Center
04:00PM 44.7308 -74.2283 290° West 191 220 7,600 -900 Descending Boston Center
04:01PM 44.7444 -74.2958 286° West 186 214 6,800 -840 Descending Boston Center
04:02PM 44.7517 -74.3633 279° West 181 208 6,000 -480 Descending Boston Center
04:03PM 44.7569 -74.4219 277° West 176 203 5,900 -120 Descending Boston Center